createdAt,value
2019-03-25T00:01:20.485Z,10.80
2019-03-25T00:02:55.939Z,10.93
2019-03-25T00:04:31.334Z,11.50
2019-03-25T00:06:06.982Z,10.60
2019-03-25T00:07:42.359Z,10.80
2019-03-25T00:09:17.751Z,10.63
2019-03-25T00:10:53.142Z,9.87
2019-03-25T00:12:28.541Z,8.75
2019-03-25T00:14:04.490Z,8.97
2019-03-25T00:15:39.894Z,10.57
2019-03-25T00:17:15.273Z,9.40
2019-03-25T00:18:50.954Z,10.77
2019-03-25T00:20:26.724Z,8.97
2019-03-25T00:22:02.083Z,8.63
2019-03-25T00:23:37.469Z,10.17
2019-03-25T00:25:13.104Z,9.90
2019-03-25T00:26:48.497Z,9.60
2019-03-25T00:28:23.872Z,9.90
2019-03-25T00:29:59.254Z,10.30
2019-03-25T00:31:34.651Z,9.23
2019-03-25T00:33:11.168Z,8.90
2019-03-25T00:34:46.552Z,9.53
2019-03-25T00:36:21.987Z,8.18
2019-03-25T00:37:57.385Z,8.73
2019-03-25T00:39:32.773Z,8.53
2019-03-25T00:41:08.175Z,8.20
2019-03-25T00:42:43.819Z,8.67
2019-03-25T00:44:19.196Z,9.23
2019-03-25T00:45:54.831Z,8.63
2019-03-25T00:47:30.246Z,8.30
2019-03-25T00:49:05.645Z,7.67
2019-03-25T00:50:41.793Z,8.20
2019-03-25T00:52:17.197Z,9.23
2019-03-25T00:53:52.577Z,8.27
2019-03-25T00:55:28.011Z,7.57
2019-03-25T00:57:03.383Z,7.77
2019-03-25T00:58:38.759Z,8.13
2019-03-25T01:00:16.000Z,7.10
2019-03-25T01:01:51.660Z,7.07
2019-03-25T01:03:27.037Z,8.40
2019-03-25T01:05:02.433Z,7.93
2019-03-25T01:06:37.836Z,7.43
2019-03-25T01:08:13.486Z,7.37
2019-03-25T01:09:48.852Z,7.27
2019-03-25T01:11:24.254Z,8.00
2019-03-25T01:12:59.631Z,7.67
2019-03-25T01:14:35.034Z,6.72
2019-03-25T01:16:10.504Z,6.70
2019-03-25T01:17:45.893Z,6.87
2019-03-25T01:19:21.278Z,6.43
2019-03-25T01:20:56.669Z,6.10
2019-03-25T01:22:32.061Z,6.43
2019-03-25T01:24:07.472Z,6.80
2019-03-25T01:25:42.869Z,6.47
2019-03-25T01:27:18.262Z,6.60
2019-03-25T01:28:53.647Z,6.47
2019-03-25T01:30:29.031Z,7.47
2019-03-25T01:32:04.681Z,6.42
2019-03-25T01:33:40.079Z,6.70
2019-03-25T01:35:15.488Z,6.17
2019-03-25T01:36:51.175Z,6.77
2019-03-25T01:38:26.544Z,5.63
2019-03-25T01:40:02.173Z,5.93
2019-03-25T01:41:37.565Z,5.47
2019-03-25T01:43:12.956Z,6.53
2019-03-25T01:44:48.442Z,6.20
2019-03-25T01:46:23.820Z,5.93
2019-03-25T01:47:59.212Z,5.13
2019-03-25T01:49:34.586Z,6.00
2019-03-25T01:51:09.968Z,5.90
2019-03-25T01:52:45.359Z,6.20
2019-03-25T01:54:20.758Z,5.67
2019-03-25T01:55:56.127Z,5.85
2019-03-25T01:57:31.516Z,5.80
2019-03-25T01:59:06.905Z,6.40
2019-03-25T02:00:42.339Z,5.43
2019-03-25T02:02:18.582Z,5.97
2019-03-25T02:03:53.950Z,6.17
2019-03-25T02:05:29.327Z,6.28
2019-03-25T02:07:04.993Z,5.92
2019-03-25T02:08:40.373Z,5.70
2019-03-25T02:10:16.624Z,5.70
2019-03-25T02:11:52.018Z,5.60
2019-03-25T02:13:27.395Z,5.30
2019-03-25T02:15:02.862Z,5.40
2019-03-25T02:16:38.229Z,5.27
2019-03-25T02:18:13.634Z,5.47
2019-03-25T02:19:49.009Z,4.90
2019-03-25T02:21:24.407Z,5.67
2019-03-25T02:23:00.047Z,6.05
2019-03-25T02:24:35.562Z,5.63
2019-03-25T02:26:11.203Z,5.80
2019-03-25T02:27:46.848Z,6.13
2019-03-25T02:29:23.211Z,6.60
2019-03-25T02:30:58.607Z,6.47
2019-03-25T02:32:34.022Z,6.47
2019-03-25T02:34:09.408Z,6.43
2019-03-25T02:35:44.783Z,6.00
2019-03-25T02:37:20.184Z,4.97
2019-03-25T02:38:55.574Z,5.77
2019-03-25T02:40:30.946Z,5.87
2019-03-25T02:42:06.344Z,6.70
2019-03-25T02:43:42.002Z,5.70
2019-03-25T02:45:17.377Z,5.37
2019-03-25T02:46:52.751Z,5.43
2019-03-25T02:48:28.129Z,5.45
2019-03-25T02:50:04.265Z,5.67
2019-03-25T02:51:39.626Z,5.97
2019-03-25T02:53:14.998Z,5.23
2019-03-25T02:54:50.374Z,4.77
2019-03-25T02:56:25.730Z,5.33
2019-03-25T02:58:01.099Z,5.15
2019-03-25T02:59:36.477Z,5.07
2019-03-25T03:01:11.843Z,5.07
2019-03-25T03:02:47.217Z,5.10
2019-03-25T03:04:22.585Z,4.57
2019-03-25T03:05:57.952Z,5.40
2019-03-25T03:07:33.332Z,4.87
2019-03-25T03:09:10.494Z,5.93
2019-03-25T03:10:45.872Z,5.67
2019-03-25T03:12:21.246Z,5.33
2019-03-25T03:13:56.609Z,6.50
2019-03-25T03:15:32.686Z,5.90
2019-03-25T03:17:08.223Z,5.63
2019-03-25T03:18:43.587Z,5.10
2019-03-25T03:20:19.330Z,5.80
2019-03-25T03:21:54.699Z,5.73
2019-03-25T03:23:30.078Z,5.30
2019-03-25T03:25:05.855Z,5.27
2019-03-25T03:26:41.235Z,5.20
2019-03-25T03:28:16.597Z,4.60
2019-03-25T03:29:51.964Z,5.17
2019-03-25T03:31:27.643Z,5.57
2019-03-25T03:33:03.022Z,5.53
2019-03-25T03:34:38.391Z,5.00
2019-03-25T03:36:13.756Z,4.90
2019-03-25T03:37:49.130Z,4.83
2019-03-25T03:39:24.498Z,5.20
2019-03-25T03:40:59.891Z,4.97
2019-03-25T03:42:35.280Z,5.17
2019-03-25T03:44:10.646Z,4.70
2019-03-25T03:45:46.269Z,4.93
2019-03-25T03:47:21.636Z,4.43
2019-03-25T03:48:57.002Z,4.97
2019-03-25T03:50:32.436Z,5.43
2019-03-25T03:52:07.973Z,4.33
2019-03-25T03:53:43.406Z,4.70
2019-03-25T03:55:18.788Z,4.73
2019-03-25T03:56:55.808Z,4.87
2019-03-25T03:58:33.692Z,5.10
2019-03-25T04:00:12.404Z,5.43
2019-03-25T04:01:48.735Z,4.80
2019-03-25T04:03:24.108Z,5.03
2019-03-25T04:04:59.473Z,5.20
2019-03-25T04:06:34.881Z,5.20
2019-03-25T04:08:10.258Z,5.20
2019-03-25T04:09:45.619Z,5.50
2019-03-25T04:11:21.525Z,5.97
2019-03-25T04:12:56.997Z,6.20
2019-03-25T04:14:32.365Z,6.33
2019-03-25T04:16:07.722Z,6.72
2019-03-25T04:17:43.206Z,6.73
2019-03-25T04:19:18.578Z,7.17
2019-03-25T04:20:53.947Z,7.90
2019-03-25T04:22:29.315Z,7.92
2019-03-25T04:24:04.695Z,7.87
2019-03-25T04:25:40.065Z,8.60
2019-03-25T04:27:15.450Z,8.30
2019-03-25T04:28:51.957Z,8.00
2019-03-25T04:30:27.312Z,8.53
2019-03-25T04:32:06.036Z,9.40
2019-03-25T04:33:40.736Z,8.57
2019-03-25T04:35:16.108Z,9.40
2019-03-25T04:36:52.119Z,8.95
2019-03-25T04:38:27.514Z,9.08
2019-03-25T04:40:03.546Z,9.10
2019-03-25T04:41:38.908Z,9.70
2019-03-25T04:43:14.541Z,8.50
2019-03-25T04:44:49.918Z,8.67
2019-03-25T04:46:26.912Z,7.97
2019-03-25T04:48:03.270Z,7.87
2019-03-25T04:49:38.637Z,7.60
2019-03-25T04:51:13.999Z,8.60
2019-03-25T04:52:50.196Z,8.00
2019-03-25T04:54:25.591Z,8.13
2019-03-25T04:56:00.954Z,8.28
2019-03-25T04:57:37.325Z,7.73
2019-03-25T04:59:12.724Z,7.37
2019-03-25T05:00:48.106Z,7.53
2019-03-25T05:02:23.481Z,7.47
2019-03-25T05:04:00.466Z,7.67
2019-03-25T05:05:36.460Z,7.30
2019-03-25T05:07:13.154Z,6.87
2019-03-25T05:08:48.536Z,7.07
2019-03-25T05:10:25.135Z,7.07
2019-03-25T05:12:00.512Z,6.67
2019-03-25T05:13:35.879Z,6.93
2019-03-25T05:15:11.384Z,6.73
2019-03-25T05:16:46.764Z,5.90
2019-03-25T05:18:23.097Z,6.20
2019-03-25T05:19:58.491Z,6.23
2019-03-25T05:21:34.112Z,6.50
2019-03-25T05:23:09.480Z,6.27
2019-03-25T05:24:44.855Z,6.50
2019-03-25T05:26:20.479Z,5.83
2019-03-25T05:28:03.310Z,6.50
2019-03-25T05:29:38.701Z,5.63
2019-03-25T05:31:14.314Z,5.83
2019-03-25T05:32:49.706Z,5.93
2019-03-25T05:34:25.098Z,5.77
2019-03-25T05:36:00.455Z,5.57
2019-03-25T05:37:36.098Z,6.00
2019-03-25T05:39:11.470Z,5.13
2019-03-25T05:40:46.845Z,5.37
2019-03-25T05:42:23.429Z,5.42
2019-03-25T05:43:58.820Z,5.20
2019-03-25T05:45:34.194Z,5.03
2019-03-25T05:47:09.859Z,5.33
2019-03-25T05:48:45.260Z,5.00
2019-03-25T05:50:20.628Z,4.77
2019-03-25T05:51:56.013Z,5.30
2019-03-25T05:53:31.389Z,5.47
2019-03-25T05:55:08.035Z,5.23
2019-03-25T05:56:43.411Z,5.17
2019-03-25T05:58:19.180Z,5.13
2019-03-25T05:59:54.577Z,5.17
2019-03-25T06:01:30.435Z,4.73
2019-03-25T06:03:05.817Z,5.00
2019-03-25T06:04:41.212Z,4.60
2019-03-25T06:06:16.609Z,4.70
2019-03-25T06:07:52.007Z,5.20
2019-03-25T06:09:27.445Z,5.37
2019-03-25T06:11:02.819Z,4.73
2019-03-25T06:12:38.211Z,4.97
2019-03-25T06:14:13.620Z,5.03
2019-03-25T06:15:49.244Z,5.17
2019-03-25T06:17:24.631Z,4.90
2019-03-25T06:19:00.016Z,4.85
2019-03-25T06:20:35.378Z,5.03
2019-03-25T06:22:10.774Z,4.85
2019-03-25T06:23:46.157Z,5.50
2019-03-25T06:25:21.554Z,5.42
2019-03-25T06:26:56.931Z,5.10
2019-03-25T06:28:33.275Z,5.30
2019-03-25T06:30:11.169Z,4.90
2019-03-25T06:31:46.574Z,4.70
2019-03-25T06:33:21.960Z,4.60
2019-03-25T06:34:57.355Z,4.17
2019-03-25T06:36:32.991Z,3.90
2019-03-25T06:38:08.364Z,4.62
2019-03-25T06:39:43.779Z,4.53
2019-03-25T06:41:19.171Z,4.57
2019-03-25T06:42:54.549Z,4.23
2019-03-25T06:44:29.925Z,4.50
2019-03-25T06:46:05.317Z,4.30
2019-03-25T06:47:40.697Z,4.50
2019-03-25T06:49:16.086Z,3.87
2019-03-25T06:50:51.535Z,3.93
2019-03-25T06:52:27.221Z,3.80
2019-03-25T06:54:02.608Z,3.90
2019-03-25T06:55:37.986Z,3.80
2019-03-25T06:57:24.775Z,3.70
2019-03-25T06:58:50.465Z,4.20
2019-03-25T07:00:25.871Z,4.10
2019-03-25T07:02:01.325Z,3.77
2019-03-25T07:03:37.014Z,3.75
2019-03-25T07:05:13.345Z,3.77
2019-03-25T07:06:48.709Z,3.80
2019-03-25T07:08:24.356Z,3.37
2019-03-25T07:09:59.746Z,3.20
2019-03-25T07:11:35.400Z,3.30
2019-03-25T07:13:10.779Z,3.07
2019-03-25T07:14:46.342Z,3.57
2019-03-25T07:16:21.717Z,3.40
2019-03-25T07:17:57.463Z,3.13
2019-03-25T07:19:32.864Z,2.93
2019-03-25T07:21:08.254Z,3.20
2019-03-25T07:22:43.867Z,3.40
2019-03-25T07:24:19.255Z,3.60
2019-03-25T07:25:54.625Z,3.33
2019-03-25T07:27:36.703Z,3.20
2019-03-25T07:29:07.092Z,3.08
2019-03-25T07:30:42.760Z,3.70
2019-03-25T07:32:18.156Z,3.13
2019-03-25T07:33:54.522Z,3.00
2019-03-25T07:35:30.327Z,3.00
2019-03-25T07:37:05.778Z,3.10
2019-03-25T07:38:41.603Z,3.20
2019-03-25T07:40:17.124Z,3.20
2019-03-25T07:41:52.518Z,2.83
2019-03-25T07:43:28.880Z,3.53
2019-03-25T07:45:11.526Z,3.37
2019-03-25T07:46:47.958Z,3.40
2019-03-25T07:48:24.482Z,3.42
2019-03-25T07:49:59.880Z,3.50
2019-03-25T07:51:35.276Z,3.47
2019-03-25T07:53:10.915Z,3.47
2019-03-25T07:54:46.331Z,3.37
2019-03-25T07:56:21.693Z,3.60
2019-03-25T07:57:57.158Z,3.53
2019-03-25T07:59:32.568Z,3.17
2019-03-25T08:01:07.941Z,3.20
2019-03-25T08:02:43.398Z,3.20
2019-03-25T08:04:18.773Z,3.50
2019-03-25T08:05:54.714Z,3.65
2019-03-25T08:07:30.087Z,3.37
2019-03-25T08:09:07.684Z,3.30
2019-03-25T08:10:43.188Z,3.30
2019-03-25T08:12:18.600Z,3.53
2019-03-25T08:13:54.741Z,3.60
2019-03-25T08:15:30.201Z,3.57
2019-03-25T08:17:05.616Z,3.72
2019-03-25T08:18:40.961Z,3.57
2019-03-25T08:20:16.681Z,3.73
2019-03-25T08:21:52.085Z,3.67
2019-03-25T08:23:27.748Z,3.83
2019-03-25T08:25:03.205Z,3.55
2019-03-25T08:26:38.606Z,3.77
2019-03-25T08:28:14.060Z,3.70
2019-03-25T08:29:49.507Z,3.57
2019-03-25T08:31:25.312Z,3.37
2019-03-25T08:33:00.689Z,3.57
2019-03-25T08:34:36.064Z,3.73
2019-03-25T08:36:11.448Z,3.60
2019-03-25T08:37:47.077Z,4.37
2019-03-25T08:39:22.738Z,3.87
2019-03-25T08:40:58.394Z,3.90
2019-03-25T08:42:33.785Z,3.60
2019-03-25T08:44:09.166Z,3.80
2019-03-25T08:45:44.634Z,3.90
2019-03-25T08:47:20.032Z,3.63
2019-03-25T08:48:55.400Z,3.87
2019-03-25T08:50:30.817Z,3.50
2019-03-25T08:52:06.494Z,3.83
2019-03-25T08:53:41.892Z,4.53
2019-03-25T08:55:17.292Z,4.33
2019-03-25T08:56:52.675Z,4.83
2019-03-25T08:58:28.046Z,4.03
2019-03-25T09:00:05.381Z,3.63
2019-03-25T09:01:40.778Z,3.60
2019-03-25T09:03:16.153Z,4.00
2019-03-25T09:04:51.549Z,3.73
2019-03-25T09:06:26.943Z,3.93
2019-03-25T09:08:02.345Z,4.13
2019-03-25T09:09:37.741Z,4.27
2019-03-25T09:11:13.137Z,4.37
2019-03-25T09:12:48.529Z,4.03
2019-03-25T09:14:23.914Z,4.03
2019-03-25T09:15:59.305Z,3.90
2019-03-25T09:17:34.690Z,3.90
2019-03-25T09:19:10.080Z,3.63
2019-03-25T09:20:45.468Z,4.80
2019-03-25T09:22:20.880Z,4.30
2019-03-25T09:23:56.254Z,4.03
2019-03-25T09:25:31.648Z,4.43
2019-03-25T09:27:07.017Z,3.83
2019-03-25T09:28:42.410Z,3.97
2019-03-25T09:30:54.269Z,4.30
2019-03-25T09:32:30.722Z,4.60
2019-03-25T09:34:06.386Z,5.07
2019-03-25T09:35:42.070Z,4.28
2019-03-25T09:37:17.422Z,5.33
2019-03-25T09:38:52.819Z,4.60
2019-03-25T09:40:28.277Z,4.10
2019-03-25T09:42:03.744Z,4.57
2019-03-25T09:43:39.312Z,4.83
2019-03-25T09:45:15.030Z,4.60
2019-03-25T09:46:50.415Z,4.60
2019-03-25T09:48:25.790Z,4.50
2019-03-25T09:50:01.431Z,4.40
2019-03-25T09:51:36.840Z,4.23
2019-03-25T09:53:12.210Z,4.53
2019-03-25T09:54:47.856Z,4.00
2019-03-25T09:56:23.257Z,4.13
2019-03-25T09:57:58.703Z,3.33
2019-03-25T09:59:34.082Z,3.70
2019-03-25T10:01:09.484Z,3.12
2019-03-25T10:02:44.864Z,3.20
2019-03-25T10:04:20.505Z,3.03
2019-03-25T10:05:57.100Z,3.20
2019-03-25T10:07:32.511Z,3.27
2019-03-25T10:09:11.331Z,3.00
2019-03-25T10:10:46.728Z,2.90
2019-03-25T10:12:22.100Z,2.83
2019-03-25T10:13:57.477Z,2.77
2019-03-25T10:15:32.929Z,2.70
2019-03-25T10:17:08.311Z,3.03
2019-03-25T10:18:43.702Z,2.67
2019-03-25T10:20:19.098Z,2.90
2019-03-25T10:21:54.496Z,2.90
2019-03-25T10:23:29.936Z,2.20
2019-03-25T10:25:10.331Z,2.08
2019-03-25T10:26:45.710Z,1.70
2019-03-25T10:28:21.100Z,1.40
2019-03-25T10:29:57.728Z,1.30
2019-03-25T10:31:33.118Z,1.27
2019-03-25T10:33:08.559Z,1.57
2019-03-25T10:34:44.199Z,1.90
2019-03-25T10:36:19.604Z,1.72
2019-03-25T10:37:54.987Z,1.90
2019-03-25T10:39:30.363Z,1.60
2019-03-25T10:41:05.767Z,1.97
2019-03-25T10:42:41.163Z,1.92
2019-03-25T10:44:16.556Z,2.08
2019-03-25T10:45:51.967Z,2.20
2019-03-25T10:47:27.684Z,2.47
2019-03-25T10:49:03.075Z,2.60
2019-03-25T10:50:38.446Z,2.70
2019-03-25T10:52:14.102Z,2.60
2019-03-25T10:53:49.482Z,2.50
2019-03-25T10:55:25.148Z,2.60
2019-03-25T10:57:00.794Z,2.27
2019-03-25T10:58:36.165Z,2.72
2019-03-25T11:00:14.208Z,2.62
2019-03-25T11:01:49.596Z,2.13
2019-03-25T11:03:24.995Z,2.30
2019-03-25T11:05:00.369Z,2.50
2019-03-25T11:06:35.766Z,2.42
2019-03-25T11:08:11.145Z,2.20
2019-03-25T11:09:46.819Z,2.43
2019-03-25T11:11:22.475Z,2.23
2019-03-25T11:12:58.096Z,2.00
2019-03-25T11:14:33.482Z,1.80
2019-03-25T11:16:10.404Z,1.70
2019-03-25T11:17:45.894Z,1.83
2019-03-25T11:19:21.535Z,2.00
2019-03-25T11:20:58.062Z,1.50
2019-03-25T11:22:33.455Z,1.85
2019-03-25T11:24:08.851Z,1.90
2019-03-25T11:25:44.236Z,1.80
2019-03-25T11:27:19.623Z,1.60
2019-03-25T11:28:54.998Z,1.80
2019-03-25T11:30:46.716Z,2.00
2019-03-25T11:32:22.096Z,1.60
2019-03-25T11:33:58.600Z,1.80
2019-03-25T11:35:33.969Z,1.70
2019-03-25T11:37:09.365Z,1.60
2019-03-25T11:38:44.733Z,1.70
2019-03-25T11:40:20.274Z,1.73
2019-03-25T11:41:55.668Z,1.53
2019-03-25T11:43:31.073Z,1.40
2019-03-25T11:45:09.643Z,1.50
2019-03-25T11:46:46.368Z,1.50
2019-03-25T11:48:22.126Z,1.40
2019-03-25T11:49:57.517Z,2.02
2019-03-25T11:51:32.910Z,2.10
2019-03-25T11:53:08.553Z,2.10
2019-03-25T11:54:43.948Z,2.13
2019-03-25T11:56:19.335Z,2.20
2019-03-25T11:57:54.718Z,1.90
2019-03-25T11:59:30.120Z,2.40
2019-03-25T12:01:06.103Z,2.08
2019-03-25T12:02:41.507Z,2.05
2019-03-25T12:04:17.156Z,1.60
2019-03-25T12:05:52.544Z,1.70
2019-03-25T12:07:27.952Z,1.70
2019-03-25T12:09:03.574Z,1.52
2019-03-25T12:10:38.974Z,1.60
2019-03-25T12:12:14.387Z,1.67
2019-03-25T12:13:49.763Z,1.57
2019-03-25T12:15:25.141Z,1.57
2019-03-25T12:17:00.789Z,1.80
2019-03-25T12:18:36.177Z,1.42
2019-03-25T12:20:12.964Z,1.55
2019-03-25T12:21:48.368Z,1.60
2019-03-25T12:23:26.474Z,1.37
2019-03-25T12:25:00.854Z,1.60
2019-03-25T12:26:36.520Z,1.50
2019-03-25T12:28:11.897Z,1.60
2019-03-25T12:29:47.294Z,1.77
2019-03-25T12:31:22.687Z,1.70
2019-03-25T12:33:03.884Z,1.62
2019-03-25T12:34:36.067Z,1.77
2019-03-25T12:36:11.456Z,1.67
2019-03-25T12:37:46.844Z,1.77
2019-03-25T12:39:22.491Z,1.70
2019-03-25T12:40:57.879Z,1.70
2019-03-25T12:42:33.283Z,1.50
2019-03-25T12:44:08.671Z,1.70
2019-03-25T12:45:44.096Z,1.83
2019-03-25T12:47:19.472Z,1.47
2019-03-25T12:48:55.103Z,2.00
2019-03-25T12:50:30.499Z,1.60
2019-03-25T12:52:06.859Z,1.80
2019-03-25T12:53:42.251Z,1.70
2019-03-25T12:55:17.645Z,1.50
2019-03-25T12:56:53.033Z,1.67
2019-03-25T12:58:28.412Z,1.93
2019-03-25T13:00:05.707Z,1.93
2019-03-25T13:01:52.140Z,1.60
2019-03-25T13:03:19.157Z,1.50
2019-03-25T13:04:54.538Z,1.70
2019-03-25T13:06:30.747Z,1.50
2019-03-25T13:08:06.455Z,1.50
2019-03-25T13:09:41.824Z,1.40
2019-03-25T13:11:17.272Z,1.87
2019-03-25T13:12:52.929Z,2.10
2019-03-25T13:14:28.324Z,2.30
2019-03-25T13:16:03.780Z,2.50
2019-03-25T13:17:39.169Z,1.75
2019-03-25T13:19:14.548Z,1.33
2019-03-25T13:20:50.226Z,2.20
2019-03-25T13:22:25.614Z,1.70
2019-03-25T13:24:01.843Z,1.43
2019-03-25T13:25:39.438Z,1.50
2019-03-25T13:27:14.343Z,1.60
2019-03-25T13:28:49.712Z,1.65
2019-03-25T13:30:25.103Z,1.40
2019-03-25T13:32:00.482Z,1.30
2019-03-25T13:33:36.948Z,1.42
2019-03-25T13:35:12.307Z,1.30
2019-03-25T13:36:47.722Z,1.50
2019-03-25T13:38:23.104Z,1.23
2019-03-25T13:39:58.482Z,1.20
2019-03-25T13:41:33.867Z,1.10
2019-03-25T13:43:09.277Z,1.13
2019-03-25T13:44:44.660Z,1.00
2019-03-25T13:46:20.049Z,1.30
2019-03-25T13:47:55.448Z,1.50
2019-03-25T13:49:33.163Z,1.43
2019-03-25T13:51:08.565Z,1.40
2019-03-25T13:52:44.927Z,1.40
2019-03-25T13:54:20.308Z,1.30
2019-03-25T13:55:55.705Z,1.50
2019-03-25T13:57:31.357Z,1.40
2019-03-25T13:59:06.737Z,1.70
2019-03-25T14:00:42.335Z,1.70
2019-03-25T14:02:17.724Z,1.40
2019-03-25T14:03:53.110Z,1.57
2019-03-25T14:05:28.494Z,1.20
2019-03-25T14:07:04.318Z,1.37
2019-03-25T14:08:39.824Z,1.40
2019-03-25T14:10:16.316Z,1.40
2019-03-25T14:11:51.683Z,1.40
2019-03-25T14:13:27.124Z,1.40
2019-03-25T14:15:02.469Z,1.20
2019-03-25T14:16:38.835Z,1.40
2019-03-25T14:18:14.203Z,1.70
2019-03-25T14:19:49.598Z,1.92
2019-03-25T14:21:24.982Z,1.80
2019-03-25T14:23:00.406Z,1.67
2019-03-25T14:24:35.867Z,1.70
2019-03-25T14:26:11.245Z,1.50
2019-03-25T14:27:46.635Z,1.73
2019-03-25T14:29:22.088Z,1.90
2019-03-25T14:31:00.593Z,1.70
2019-03-25T14:32:36.046Z,1.90
2019-03-25T14:34:11.421Z,1.73
2019-03-25T14:35:46.812Z,1.80
2019-03-25T14:37:22.214Z,1.90
2019-03-25T14:38:57.887Z,1.70
2019-03-25T14:40:33.308Z,1.73
2019-03-25T14:42:08.670Z,1.70
2019-03-25T14:43:44.054Z,1.40
2019-03-25T14:45:26.311Z,1.40
2019-03-25T14:46:56.538Z,1.70
2019-03-25T14:48:31.938Z,1.50
2019-03-25T14:50:09.264Z,0.80
2019-03-25T14:51:44.672Z,1.07
2019-03-25T14:53:20.070Z,0.83
2019-03-25T14:54:55.438Z,0.80
2019-03-25T14:56:31.111Z,1.00
2019-03-25T14:58:06.882Z,0.80
2019-03-25T14:59:43.227Z,0.63
2019-03-25T15:01:18.688Z,0.70
2019-03-25T15:02:54.080Z,0.62
2019-03-25T15:04:29.788Z,0.77
2019-03-25T15:06:05.181Z,0.87
2019-03-25T15:07:40.557Z,0.87
2019-03-25T15:09:16.295Z,1.00
2019-03-25T15:10:53.678Z,0.70
2019-03-25T15:12:29.068Z,0.90
2019-03-25T15:14:04.819Z,1.03
2019-03-25T15:15:40.204Z,0.77
2019-03-25T15:17:15.642Z,0.87
2019-03-25T15:18:51.041Z,0.87
2019-03-25T15:20:26.409Z,0.70
2019-03-25T15:22:02.066Z,1.00
2019-03-25T15:23:37.455Z,0.83
2019-03-25T15:25:14.606Z,1.07
2019-03-25T15:26:49.980Z,0.80
2019-03-25T15:28:25.376Z,1.00
2019-03-25T15:30:00.771Z,0.90
2019-03-25T15:31:36.146Z,0.90
2019-03-25T15:33:11.543Z,0.90
2019-03-25T15:34:46.915Z,0.87
2019-03-25T15:36:22.296Z,0.97
2019-03-25T15:37:57.680Z,1.30
2019-03-25T15:39:33.072Z,1.07
2019-03-25T15:41:08.444Z,1.17
2019-03-25T15:42:43.844Z,1.20
2019-03-25T15:44:19.496Z,1.00
2019-03-25T15:45:54.875Z,1.10
2019-03-25T15:47:30.343Z,1.10
2019-03-25T15:49:05.898Z,1.10
2019-03-25T15:50:42.292Z,1.30
2019-03-25T15:52:17.680Z,1.23
2019-03-25T15:53:53.075Z,1.10
2019-03-25T15:55:28.459Z,1.30
2019-03-25T15:57:04.180Z,1.20
2019-03-25T15:58:39.562Z,1.37
2019-03-25T16:00:18.847Z,1.63
2019-03-25T16:01:54.251Z,1.57
2019-03-25T16:03:29.668Z,1.60
2019-03-25T16:05:06.346Z,2.03
2019-03-25T16:06:42.877Z,2.10
2019-03-25T16:08:18.250Z,2.10
2019-03-25T16:09:53.926Z,1.70
2019-03-25T16:11:29.309Z,1.47
2019-03-25T16:13:05.064Z,1.30
2019-03-25T16:14:40.448Z,1.50
2019-03-25T16:16:15.836Z,1.27
2019-03-25T16:17:51.235Z,1.20
2019-03-25T16:19:26.888Z,1.10
2019-03-25T16:21:02.337Z,0.90
2019-03-25T16:22:37.707Z,1.00
2019-03-25T16:24:13.870Z,1.07
2019-03-25T16:25:49.291Z,1.22
2019-03-25T16:27:24.743Z,1.07
2019-03-25T16:29:00.423Z,1.20
2019-03-25T16:30:36.061Z,1.17
2019-03-25T16:32:11.690Z,1.50
2019-03-25T16:33:47.079Z,1.50
2019-03-25T16:35:22.476Z,1.32
2019-03-25T16:36:57.848Z,1.10
2019-03-25T16:38:33.254Z,1.30
2019-03-25T16:40:09.076Z,1.30
2019-03-25T16:41:44.793Z,1.30
2019-03-25T16:43:20.180Z,0.80
2019-03-25T16:44:55.587Z,0.80
2019-03-25T16:46:30.982Z,0.70
2019-03-25T16:48:06.369Z,1.20
2019-03-25T16:49:41.757Z,0.70
2019-03-25T16:51:17.140Z,0.53
2019-03-25T16:52:52.521Z,0.50
2019-03-25T16:54:27.933Z,0.60
2019-03-25T16:56:03.568Z,0.80
2019-03-25T16:57:38.946Z,0.97
2019-03-25T16:59:14.339Z,0.80
2019-03-25T17:00:49.705Z,0.73
2019-03-25T17:02:25.079Z,0.70
2019-03-25T17:04:00.466Z,0.60
2019-03-25T17:05:35.833Z,1.10
2019-03-25T17:07:11.221Z,0.80
2019-03-25T17:08:46.926Z,0.70
2019-03-25T17:10:22.314Z,0.77
2019-03-25T17:11:57.679Z,0.50
2019-03-25T17:13:33.053Z,0.60
2019-03-25T17:15:09.674Z,0.60
2019-03-25T17:16:45.045Z,0.60
2019-03-25T17:18:20.429Z,0.50
2019-03-25T17:19:55.799Z,0.55
2019-03-25T17:21:31.178Z,0.90
2019-03-25T17:23:06.543Z,1.10
2019-03-25T17:24:41.930Z,1.10
2019-03-25T17:26:17.651Z,1.20
2019-03-25T17:27:53.029Z,1.30
2019-03-25T17:29:28.668Z,1.13
2019-03-25T17:31:04.037Z,1.00
2019-03-25T17:32:39.399Z,1.00
2019-03-25T17:34:14.828Z,1.10
2019-03-25T17:35:50.139Z,1.10
2019-03-25T17:37:25.510Z,1.15
2019-03-25T17:39:00.887Z,0.90
2019-03-25T17:40:37.464Z,0.90
2019-03-25T17:42:13.315Z,1.00
2019-03-25T17:43:48.691Z,1.00
2019-03-25T17:45:24.404Z,1.10
2019-03-25T17:46:59.786Z,1.17
2019-03-25T17:48:35.417Z,1.07
2019-03-25T17:50:12.179Z,1.20
2019-03-25T17:58:08.260Z,2.30
2019-03-25T17:59:43.684Z,2.30
2019-03-25T18:01:19.420Z,1.70
2019-03-25T18:02:55.907Z,1.40
2019-03-25T18:04:31.533Z,1.50
2019-03-25T18:06:06.902Z,1.37
2019-03-25T18:07:42.275Z,1.50
2019-03-25T18:09:17.648Z,1.50
2019-03-25T18:10:53.262Z,1.80
2019-03-25T18:12:38.391Z,1.70
2019-03-25T18:14:05.864Z,1.90
2019-03-25T18:15:41.237Z,1.70
2019-03-25T18:17:16.651Z,2.03
2019-03-25T18:18:52.017Z,1.70
2019-03-25T18:20:27.386Z,2.03
2019-03-25T18:22:02.754Z,4.60
2019-03-25T18:55:10.435Z,3.00
2019-03-25T18:56:45.956Z,2.83
2019-03-25T18:58:21.480Z,2.50
2019-03-25T18:59:57.991Z,2.40
2019-03-25T19:01:33.597Z,2.10
2019-03-25T19:03:09.388Z,2.00
2019-03-25T19:04:45.453Z,2.00
2019-03-25T19:06:20.992Z,1.70
2019-03-25T19:07:56.750Z,1.90
2019-03-25T19:09:32.347Z,1.70
2019-03-25T19:11:08.141Z,1.87
2019-03-25T19:12:43.647Z,1.93
2019-03-25T19:14:19.174Z,2.00
2019-03-25T19:15:54.718Z,1.80
2019-03-25T19:17:30.232Z,2.10
2019-03-25T19:19:05.756Z,2.30
2019-03-25T19:20:41.284Z,2.02
2019-03-25T19:22:19.600Z,2.43
2019-03-25T19:23:55.127Z,2.20
2019-03-25T19:25:30.696Z,2.10
2019-03-25T19:27:06.201Z,2.00
2019-03-25T19:28:41.727Z,1.80
2019-03-25T19:30:18.928Z,1.90
2019-03-25T19:32:05.873Z,1.90
2019-03-25T19:33:31.871Z,1.85
2019-03-25T19:35:08.772Z,1.87
2019-03-25T19:36:44.268Z,1.70
2019-03-25T19:38:19.774Z,1.80
2019-03-25T19:39:57.160Z,1.72
2019-03-25T19:41:33.022Z,1.90
2019-03-25T19:43:08.552Z,1.83
2019-03-25T19:44:44.341Z,1.83
2019-03-25T19:46:19.816Z,2.17
2019-03-25T19:47:55.348Z,2.30
2019-03-25T19:49:30.835Z,2.30
2019-03-25T19:51:06.359Z,2.20
2019-03-25T19:52:41.866Z,2.57
2019-03-25T19:54:17.671Z,2.20
2019-03-25T19:55:53.211Z,2.37
2019-03-25T19:57:28.707Z,2.30
2019-03-25T19:59:04.284Z,2.10
2019-03-25T20:00:41.019Z,2.07
2019-03-25T20:02:19.294Z,2.17
2019-03-25T20:03:55.070Z,2.00
2019-03-25T20:05:30.214Z,1.87
2019-03-25T20:07:05.689Z,1.73
2019-03-25T20:08:41.556Z,1.80
2019-03-25T20:10:32.313Z,2.08
2019-03-25T20:12:07.972Z,1.63
2019-03-25T20:13:43.693Z,1.80
2019-03-25T20:15:19.176Z,1.90
2019-03-25T20:16:55.040Z,1.60
2019-03-25T20:18:30.591Z,1.67
2019-03-25T20:20:08.465Z,1.80
2019-03-25T20:21:43.977Z,1.67
2019-03-25T20:23:19.482Z,1.92
2019-03-25T20:24:54.991Z,1.80
2019-03-25T20:26:30.541Z,1.60
2019-03-25T20:28:06.269Z,2.20
2019-03-25T20:29:41.772Z,2.10
2019-03-25T20:31:17.282Z,2.10
2019-03-25T20:32:52.788Z,2.10
2019-03-25T20:34:28.622Z,2.17
2019-03-25T20:36:04.141Z,2.40
2019-03-25T20:37:40.720Z,2.20
2019-03-25T20:39:16.485Z,3.23
2019-03-25T20:40:52.057Z,3.10
2019-03-25T20:42:27.653Z,3.37
2019-03-25T20:44:03.204Z,2.67
2019-03-25T20:45:38.700Z,2.90
2019-03-25T20:47:15.517Z,2.60
2019-03-25T20:48:51.475Z,2.30
2019-03-25T20:50:26.938Z,2.53
2019-03-25T20:52:02.456Z,2.30
2019-03-25T20:53:38.058Z,2.20
2019-03-25T20:55:13.565Z,2.60
2019-03-25T20:56:49.544Z,2.37
2019-03-25T20:58:25.042Z,2.70
2019-03-25T21:00:00.888Z,2.50
2019-03-25T21:01:36.692Z,2.52
2019-03-25T21:03:12.468Z,2.50
2019-03-25T21:04:48.046Z,2.90
2019-03-25T21:06:23.792Z,2.60
2019-03-25T21:07:59.534Z,2.70
2019-03-25T21:09:35.052Z,2.30
2019-03-25T21:11:10.570Z,2.45
2019-03-25T21:12:46.158Z,2.60
2019-03-25T21:14:21.713Z,2.47
2019-03-25T21:15:57.485Z,2.30
2019-03-25T21:17:34.006Z,2.30
2019-03-25T21:19:09.571Z,2.13
2019-03-25T21:20:46.094Z,2.40
2019-03-25T21:22:22.658Z,2.40
2019-03-25T21:23:57.881Z,2.23
2019-03-25T21:25:33.282Z,1.93
2019-03-25T21:27:08.829Z,2.15
2019-03-25T21:28:44.551Z,2.20
2019-03-25T21:30:21.618Z,2.50
2019-03-25T21:31:57.407Z,2.10
2019-03-25T21:33:32.931Z,2.30
2019-03-25T21:35:08.790Z,2.47
2019-03-25T21:36:44.372Z,2.80
2019-03-25T21:38:20.176Z,2.70
2019-03-25T21:39:55.933Z,2.70
2019-03-25T21:41:31.426Z,2.70
2019-03-25T21:43:06.955Z,2.40
2019-03-25T21:44:42.472Z,2.47
2019-03-25T21:46:17.688Z,2.70
2019-03-25T21:47:53.163Z,2.57
2019-03-25T21:49:28.666Z,2.50
2019-03-25T21:51:04.259Z,2.52
2019-03-25T21:52:39.837Z,2.50